Time;durP1;ratioP1;P1;durP2;ratioP2;P2;SDS_P1;SDS_P2;PMS_P1;PMS_P2;Temp;Humidity;BMP_temperature;BMP_pressure;BME280_temperature;BME280_humidity;BME280_pressure;Samples;Min_cycle;Max_cycle;Signal;HPM_P1;HPM_P2
2021/06/16 00:00:18;;;;;;;9.45;2.55;;;13.50;99.70;;;;;;4975205;28;20041;-81
2021/06/16 00:02:46;;;;;;;10.82;2.70;;;13.50;99.80;;;;;;4976391;28;20054;-82
2021/06/16 00:05:15;;;;;;;8.60;2.80;;;13.50;99.80;;;;;;4979671;28;20169;-82
2021/06/16 00:07:42;;;;;;;11.52;3.22;;;13.60;99.80;;;;;;4961897;28;20061;-82
2021/06/16 00:10:09;;;;;;;9.02;2.45;;;13.50;99.90;;;;;;4980160;28;20034;-82
2021/06/16 00:12:36;;;;;;;9.60;2.17;;;13.50;99.80;;;;;;4964443;28;20038;-82
2021/06/16 00:15:26;;;;;;;9.60;2.20;;;13.50;99.90;;;;;;4963884;28;20035;-82
2021/06/16 00:17:52;;;;;;;11.43;2.85;;;13.50;99.90;;;;;;4978344;28;20038;-82
2021/06/16 00:20:18;;;;;;;10.35;3.03;;;13.40;99.90;;;;;;4976125;28;20039;-82
2021/06/16 00:22:43;;;;;;;12.32;3.20;;;13.70;99.90;;;;;;4976797;28;20058;-82
2021/06/16 00:25:10;;;;;;;6.15;2.53;;;13.40;99.80;;;;;;4977592;28;20053;-82
2021/06/16 00:27:36;;;;;;;11.85;2.78;;;13.30;99.80;;;;;;4978387;28;20053;-81
2021/06/16 00:30:06;;;;;;;13.25;2.90;;;13.80;99.90;;;;;;4963470;28;20046;-82
2021/06/16 00:32:33;;;;;;;7.82;2.83;;;13.30;99.90;;;;;;4962463;28;20402;-82
2021/06/16 00:35:03;;;;;;;10.38;3.10;;;13.20;99.90;;;;;;4948807;28;20439;-82
2021/06/16 00:37:36;;;;;;;8.70;2.97;;;13.20;99.90;;;;;;4977830;28;20046;-81
2021/06/16 00:40:06;;;;;;;7.88;2.55;;;13.20;99.90;;;;;;4946147;28;20047;-82
2021/06/16 00:42:48;;;;;;;11.57;2.58;;;13.20;99.90;;;;;;4973912;28;20054;-82
2021/06/16 00:45:26;;;;;;;10.00;2.80;;;13.30;99.90;;;;;;4959061;28;20046;-82
2021/06/16 00:47:56;;;;;;;13.95;3.22;;;13.20;99.90;;;;;;4979449;28;20431;-82
2021/06/16 00:50:44;;;;;;;8.27;3.13;;;13.30;99.90;;;;;;4977454;28;20143;-83
2021/06/16 00:53:11;;;;;;;7.30;2.60;;;13.20;99.90;;;;;;4976941;28;20161;-82
2021/06/16 00:55:44;;;;;;;9.18;2.45;;;13.30;99.90;;;;;;4972556;28;20617;-81
2021/06/16 00:58:27;;;;;;;10.88;3.10;;;13.30;99.90;;;;;;4973213;28;20173;-81
2021/06/16 01:01:07;;;;;;;9.68;3.30;;;13.00;99.90;;;;;;4974965;28;20041;-81
2021/06/16 01:04:08;;;;;;;9.48;2.55;;;13.10;99.90;;;;;;4974981;28;20045;-82
2021/06/16 01:07:06;;;;;;;10.25;3.25;;;13.10;99.90;;;;;;4969209;28;20054;-82
2021/06/16 01:09:50;;;;;;;10.10;3.03;;;13.00;99.90;;;;;;4971378;28;20502;-82
2021/06/16 01:12:24;;;;;;;9.68;2.72;;;13.00;99.90;;;;;;4961373;28;20062;-81
2021/06/16 01:15:06;;;;;;;7.90;2.63;;;13.00;99.90;;;;;;4960095;28;20129;-81
2021/06/16 01:17:42;;;;;;;10.82;2.95;;;12.90;99.90;;;;;;4975419;28;20047;-81
2021/06/16 01:20:20;;;;;;;8.10;2.35;;;12.90;99.90;;;;;;4989508;28;20684;-82
2021/06/16 01:23:13;;;;;;;7.30;2.15;;;12.80;99.90;;;;;;4978475;28;20492;-82
2021/06/16 01:25:49;;;;;;;9.43;2.40;;;12.80;99.90;;;;;;4955877;28;20046;-81
2021/06/16 01:28:18;;;;;;;11.90;3.00;;;13.50;99.90;;;;;;4961413;28;20049;-81
2021/06/16 01:30:47;;;;;;;11.02;3.63;;;12.80;99.90;;;;;;4976642;28;20034;-82
2021/06/16 01:33:16;;;;;;;9.10;3.03;;;12.70;99.90;;;;;;4978872;28;20121;-81
2021/06/16 01:35:47;;;;;;;7.55;2.90;;;12.60;99.90;;;;;;4957812;28;20054;-82
2021/06/16 01:38:19;;;;;;;10.30;2.83;;;12.60;99.90;;;;;;4955695;28;20197;-81
2021/06/16 01:40:48;;;;;;;14.85;2.83;;;12.50;99.90;;;;;;4978398;28;20127;-81
2021/06/16 01:43:16;;;;;;;9.18;3.08;;;12.40;99.90;;;;;;4976428;28;20042;-82
2021/06/16 01:45:44;;;;;;;6.95;2.75;;;12.40;99.90;;;;;;4976852;28;20042;-81
2021/06/16 01:48:15;;;;;;;10.15;2.83;;;13.10;99.90;;;;;;4975029;28;20105;-82
2021/06/16 01:50:42;;;;;;;12.23;3.78;;;12.40;99.90;;;;;;4974936;28;20045;-81
2021/06/16 01:53:08;;;;;;;7.82;3.40;;;12.40;99.90;;;;;;4977930;28;20038;-82
2021/06/16 01:55:35;;;;;;;8.77;2.50;;;12.40;99.90;;;;;;4977938;28;20121;-81
2021/06/16 01:58:01;;;;;;;10.82;2.90;;;12.40;99.90;;;;;;4979272;28;20046;-82
2021/06/16 02:00:28;;;;;;;5.78;2.47;;;12.40;99.90;;;;;;4977461;28;20132;-82
2021/06/16 02:02:55;;;;;;;11.13;2.90;;;12.40;99.90;;;;;;4976572;28;20046;-82
2021/06/16 02:05:21;;;;;;;7.63;3.28;;;12.40;99.90;;;;;;4976184;28;20048;-81
2021/06/16 02:08:00;;;;;;;20.10;3.15;;;12.40;99.90;;;;;;4978600;28;20384;-82
2021/06/16 02:10:31;;;;;;;9.30;3.00;;;12.30;99.90;;;;;;4981528;28;20116;-81
2021/06/16 02:12:59;;;;;;;8.55;3.45;;;12.30;99.90;;;;;;4976586;28;20039;-81
2021/06/16 02:15:30;;;;;;;11.30;3.75;;;12.30;99.90;;;;;;4974407;28;20125;-81
2021/06/16 02:18:00;;;;;;;8.30;3.30;;;12.30;99.90;;;;;;4975945;28;20749;-82
2021/06/16 02:20:26;;;;;;;11.15;3.53;;;12.30;99.90;;;;;;4974673;28;20034;-82
2021/06/16 02:22:52;;;;;;;8.68;3.10;;;12.30;99.90;;;;;;4978691;28;20045;-81
2021/06/16 02:25:19;;;;;;;6.68;2.55;;;12.30;99.90;;;;;;4984245;28;20431;-81
2021/06/16 02:27:44;;;;;;;12.88;5.00;;;12.40;99.90;;;;;;4983162;28;20927;-81
2021/06/16 02:30:10;;;;;;;9.43;3.92;;;12.30;99.90;;;;;;4982884;28;20045;-81
2021/06/16 02:32:37;;;;;;;11.80;3.72;;;12.40;99.90;;;;;;4981098;28;20038;-81
2021/06/16 02:35:07;;;;;;;12.38;3.28;;;12.40;99.90;;;;;;4981655;28;20039;-81
2021/06/16 02:37:38;;;;;;;10.77;3.05;;;12.30;99.90;;;;;;4984648;28;20049;-81
2021/06/16 02:40:14;;;;;;;10.23;3.88;;;12.30;99.90;;;;;;4998329;28;20034;-82
2021/06/16 02:42:42;;;;;;;9.68;4.03;;;12.30;99.90;;;;;;4982574;28;20038;-82
2021/06/16 02:45:08;;;;;;;10.52;3.80;;;12.30;99.90;;;;;;4978266;28;20049;-82
2021/06/16 02:47:39;;;;;;;13.63;3.67;;;12.30;99.90;;;;;;4981911;28;20031;-81
2021/06/16 02:50:06;;;;;;;9.65;4.13;;;12.30;99.90;;;;;;4982643;28;20149;-81
2021/06/16 02:52:35;;;;;;;16.13;3.88;;;12.30;99.90;;;;;;4981336;28;20042;-81
2021/06/16 02:55:04;;;;;;;10.18;3.75;;;12.30;99.90;;;;;;4983295;28;20095;-81
2021/06/16 02:57:35;;;;;;;7.53;3.97;;;12.30;99.90;;;;;;4976119;28;20038;-81
2021/06/16 03:00:04;;;;;;;13.30;3.42;;;12.30;99.90;;;;;;4980945;28;20043;-82
2021/06/16 03:02:30;;;;;;;9.70;4.47;;;12.30;99.90;;;;;;4979339;28;20049;-82
2021/06/16 03:04:58;;;;;;;8.77;3.88;;;12.30;99.90;;;;;;4979220;28;20039;-82
2021/06/16 03:07:25;;;;;;;10.65;3.65;;;12.40;99.90;;;;;;4977857;28;20042;-81
2021/06/16 03:09:51;;;;;;;11.38;3.90;;;12.30;99.90;;;;;;4980786;28;20038;-82
2021/06/16 03:12:21;;;;;;;7.50;4.07;;;12.30;99.90;;;;;;4976352;28;20495;-82
2021/06/16 03:14:50;;;;;;;10.48;3.80;;;12.30;99.90;;;;;;4979125;28;20034;-82
2021/06/16 03:17:18;;;;;;;8.93;4.50;;;12.20;99.90;;;;;;4975902;28;20053;-81
2021/06/16 03:19:44;;;;;;;10.57;4.20;;;12.30;99.90;;;;;;4978553;28;20046;-82
2021/06/16 03:22:10;;;;;;;11.07;4.28;;;12.30;99.90;;;;;;4979775;28;20034;-81
2021/06/16 03:24:39;;;;;;;12.43;4.43;;;12.30;99.90;;;;;;4978674;28;20042;-81
2021/06/16 03:27:06;;;;;;;11.43;4.20;;;12.30;99.90;;;;;;4979024;28;20035;-82
2021/06/16 03:29:33;;;;;;;12.95;4.20;;;12.40;99.90;;;;;;4979682;28;20049;-82
2021/06/16 03:32:02;;;;;;;13.82;3.60;;;12.60;99.90;;;;;;4979435;28;20050;-82
2021/06/16 03:34:28;;;;;;;14.50;4.22;;;12.90;99.90;;;;;;4980538;28;20042;-81
2021/06/16 03:36:58;;;;;;;12.95;3.88;;;12.40;99.90;;;;;;4978696;28;20086;-81
2021/06/16 03:39:24;;;;;;;10.75;4.47;;;12.50;99.90;;;;;;4977731;28;20034;-82
2021/06/16 03:41:50;;;;;;;13.45;5.03;;;12.50;99.90;;;;;;4978162;28;20038;-82
2021/06/16 03:44:16;;;;;;;11.93;4.60;;;12.50;99.90;;;;;;4980152;28;20095;-82
2021/06/16 03:46:42;;;;;;;11.93;3.70;;;12.50;99.90;;;;;;4977616;28;20462;-82
2021/06/16 03:49:14;;;;;;;11.88;3.95;;;12.50;99.90;;;;;;4975638;28;20117;-82
2021/06/16 03:51:42;;;;;;;12.85;3.80;;;12.60;99.90;;;;;;4992056;28;20050;-82
2021/06/16 03:54:12;;;;;;;10.32;4.22;;;12.60;99.90;;;;;;4977621;28;20541;-82
2021/06/16 03:56:40;;;;;;;9.70;4.50;;;12.70;99.90;;;;;;4975455;28;20042;-82
2021/06/16 03:59:07;;;;;;;13.43;4.40;;;12.70;99.90;;;;;;4984004;28;20064;-82
2021/06/16 04:01:33;;;;;;;11.27;5.03;;;12.70;99.90;;;;;;4984602;28;20039;-81
2021/06/16 04:04:02;;;;;;;8.57;4.10;;;12.70;99.90;;;;;;4981017;28;20145;-82
2021/06/16 04:06:28;;;;;;;14.45;5.07;;;12.80;99.90;;;;;;4978977;28;20030;-82
2021/06/16 04:08:53;;;;;;;8.57;3.95;;;12.90;99.90;;;;;;4982013;28;20034;-82
2021/06/16 04:11:19;;;;;;;11.45;3.67;;;13.10;99.90;;;;;;4982157;28;20049;-81
2021/06/16 04:13:45;;;;;;;8.05;3.63;;;13.20;99.90;;;;;;4983668;28;20038;-80
2021/06/16 04:16:11;;;;;;;10.98;3.60;;;13.30;99.90;;;;;;4987977;28;20123;-82
2021/06/16 04:18:46;;;;;;;13.02;4.70;;;13.40;99.90;;;;;;4968063;28;20109;-81
2021/06/16 04:21:29;;;;;;;10.93;3.75;;;13.50;99.90;;;;;;4981326;28;20051;-82
2021/06/16 04:23:55;;;;;;;13.68;3.92;;;13.50;99.90;;;;;;4976268;28;20039;-83
2021/06/16 04:26:22;;;;;;;8.68;4.35;;;13.60;99.90;;;;;;4982677;28;20042;-82
2021/06/16 04:29:41;;;;;;;8.88;3.78;;;13.70;99.90;;;;;;4984826;28;20042;-84
2021/06/16 04:32:52;;;;;;;11.63;4.50;;;13.80;99.90;;;;;;4983446;28;20586;-84
2021/06/16 04:35:19;;;;;;;10.32;4.53;;;13.80;99.90;;;;;;4981895;28;20031;-82
2021/06/16 04:38:24;;;;;;;7.93;3.38;;;13.90;99.90;;;;;;4967869;28;20063;-83
2021/06/16 04:40:50;;;;;;;15.38;3.92;;;14.10;99.90;;;;;;4984634;28;20036;-82
2021/06/16 04:43:16;;;;;;;12.20;4.07;;;14.30;99.40;;;;;;4982719;28;20106;-83
2021/06/16 04:45:41;;;;;;;11.18;4.05;;;14.50;99.10;;;;;;4986600;28;20394;-82
2021/06/16 04:48:07;;;;;;;12.90;4.47;;;14.80;98.40;;;;;;4984430;28;20045;-83
2021/06/16 04:50:33;;;;;;;10.00;4.25;;;15.20;97.90;;;;;;4985828;28;20038;-83
2021/06/16 04:52:59;;;;;;;9.70;2.88;;;15.80;97.40;;;;;;4984440;28;20051;-83
2021/06/16 04:55:25;;;;;;;5.68;2.83;;;16.80;97.10;;;;;;4980486;28;20038;-82
2021/06/16 04:57:50;;;;;;;10.35;3.47;;;17.40;95.70;;;;;;4984692;28;20153;-83
2021/06/16 05:00:17;;;;;;;10.07;3.70;;;18.20;93.50;;;;;;4977360;28;20045;-83
2021/06/16 05:02:43;;;;;;;11.90;3.28;;;19.00;91.90;;;;;;4995463;28;20042;-83
2021/06/16 05:05:09;;;;;;;11.50;3.65;;;19.30;90.90;;;;;;4978534;28;20098;-84
2021/06/16 05:07:37;;;;;;;9.68;3.17;;;19.60;90.70;;;;;;4979935;28;20039;-84
2021/06/16 05:10:04;;;;;;;12.10;3.15;;;19.40;90.20;;;;;;4980451;28;20088;-83
2021/06/16 05:12:30;;;;;;;13.95;3.50;;;19.20;90.50;;;;;;4979529;28;20034;-83
2021/06/16 05:14:55;;;;;;;13.93;3.40;;;19.00;90.90;;;;;;4978084;28;21067;-83
2021/06/16 05:17:22;;;;;;;7.88;3.00;;;18.90;91.80;;;;;;4981392;28;20502;-84
2021/06/16 05:19:55;;;;;;;10.13;3.03;;;18.70;92.40;;;;;;4984235;28;20383;-84
2021/06/16 05:22:21;;;;;;;10.63;2.95;;;18.80;92.70;;;;;;4979775;28;20038;-84
2021/06/16 05:24:47;;;;;;;8.98;2.58;;;18.70;93.20;;;;;;4979077;28;20050;-84
2021/06/16 05:27:15;;;;;;;11.85;2.60;;;19.00;92.70;;;;;;4977501;28;20065;-83
2021/06/16 05:29:45;;;;;;;12.30;3.83;;;19.20;92.40;;;;;;4978157;28;20042;-83
2021/06/16 05:32:11;;;;;;;8.02;2.67;;;19.30;91.70;;;;;;4981001;28;20489;-82
2021/06/16 05:34:40;;;;;;;10.10;2.70;;;19.50;90.90;;;;;;4979146;28;20042;-83
2021/06/16 05:37:14;;;;;;;14.00;3.53;;;19.60;90.80;;;;;;4978831;28;20069;-83
2021/06/16 05:40:50;;;;;;;13.55;2.97;;;19.70;90.70;;;;;;4965826;28;20052;-82
2021/06/16 05:44:48;;;;;;;6.15;2.22;;;19.90;89.90;;;;;;4929640;29;20854;-83
2021/06/16 05:48:21;;;;;;;11.75;2.90;;;20.10;90.40;;;;;;4910983;29;20073;-83
2021/06/16 05:51:30;;;;;;;9.68;2.78;;;20.50;90.20;;;;;;4944305;29;20053;-83
2021/06/16 05:54:56;;;;;;;8.77;2.70;;;20.80;89.90;;;;;;4866608;29;20541;-84
2021/06/16 05:58:42;;;;;;;7.70;2.55;;;21.20;87.60;;;;;;4826511;29;20133;-83
2021/06/16 06:09:10;;;;;;;6.45;2.88;;;21.90;84.40;;;;;;4818848;29;20050;-83
2021/06/16 06:12:20;;;;;;;13.07;3.50;;;22.20;84.10;;;;;;4874760;29;20151;-85
2021/06/16 06:15:06;;;;;;;9.65;2.90;;;22.00;86.10;;;;;;4878686;29;20049;-84
2021/06/16 06:17:38;;;;;;;8.43;2.75;;;22.30;84.20;;;;;;4866975;29;20469;-83
2021/06/16 06:20:42;;;;;;;9.95;2.92;;;22.60;82.80;;;;;;4873732;29;20059;-84
2021/06/16 06:23:22;;;;;;;8.77;3.85;;;22.80;81.70;;;;;;4868874;29;20047;-80
2021/06/16 06:26:18;;;;;;;7.13;2.08;;;23.20;79.90;;;;;;4933830;29;20091;-82
2021/06/16 06:28:47;;;;;;;10.38;3.10;;;23.40;79.90;;;;;;4901648;29;20055;-82
2021/06/16 06:31:55;;;;;;;8.65;3.08;;;23.40;78.70;;;;;;4924349;28;20150;-81
2021/06/16 06:34:20;;;;;;;9.90;2.97;;;23.60;80.30;;;;;;4922336;29;20096;-82
2021/06/16 06:40:44;;;;;;;9.65;2.80;;;23.90;77.30;;;;;;4954911;28;20077;-82
2021/06/16 06:43:40;;;;;;;11.10;3.33;;;24.00;75.50;;;;;;4954079;28;20106;-81
2021/06/16 06:47:16;;;;;;;10.13;3.08;;;23.90;75.30;;;;;;4941042;28;20078;-81
2021/06/16 06:49:47;;;;;;;7.88;3.10;;;23.90;75.60;;;;;;4969263;28;20073;-81
2021/06/16 06:52:34;;;;;;;9.65;3.30;;;23.90;76.30;;;;;;4976047;28;20157;-81
2021/06/16 06:55:18;;;;;;;8.90;2.83;;;23.80;75.70;;;;;;4960568;28;20049;-81
2021/06/16 06:57:45;;;;;;;7.53;2.75;;;23.90;75.60;;;;;;4974217;28;20042;-81
2021/06/16 07:00:15;;;;;;;10.15;3.50;;;24.00;76.80;;;;;;4983674;28;20038;-81
2021/06/16 07:02:43;;;;;;;12.40;3.95;;;24.00;75.60;;;;;;4976862;28;20467;-81
2021/06/16 07:05:31;;;;;;;14.05;3.25;;;23.80;73.70;;;;;;4978574;28;20046;-81
2021/06/16 07:08:12;;;;;;;11.30;3.63;;;23.60;74.60;;;;;;4957766;28;20153;-81
2021/06/16 07:10:40;;;;;;;18.92;4.22;;;23.40;74.90;;;;;;4975013;28;20206;-81
2021/06/16 07:13:36;;;;;;;11.73;3.88;;;23.40;76.60;;;;;;4981386;28;20042;-81
2021/06/16 07:16:02;;;;;;;11.43;3.35;;;23.40;76.80;;;;;;4978643;28;20050;-81
2021/06/16 07:18:53;;;;;;;11.40;2.75;;;23.50;77.30;;;;;;4978726;28;20046;-81
2021/06/16 07:22:05;;;;;;;8.52;3.10;;;23.70;76.40;;;;;;4975979;28;20163;-82
2021/06/16 07:25:20;;;;;;;5.53;3.17;;;23.80;75.50;;;;;;4968264;28;20081;-82
2021/06/16 07:27:46;;;;;;;5.85;2.92;;;24.10;75.40;;;;;;4959076;28;20058;-82
2021/06/16 07:30:28;;;;;;;14.23;3.00;;;24.30;75.60;;;;;;4966688;28;20053;-82
2021/06/16 07:32:55;;;;;;;9.70;3.30;;;24.60;75.80;;;;;;4978849;28;20225;-81
2021/06/16 07:35:22;;;;;;;6.97;3.05;;;24.60;74.50;;;;;;4978116;28;20030;-82
2021/06/16 07:38:20;;;;;;;6.03;2.92;;;24.60;74.00;;;;;;4978624;28;20042;-82
2021/06/16 07:40:47;;;;;;;10.45;3.10;;;24.80;73.80;;;;;;4979730;28;20038;-82
2021/06/16 07:43:23;;;;;;;7.90;2.78;;;24.90;71.70;;;;;;4979014;28;20040;-81
2021/06/16 07:45:56;;;;;;;6.78;3.05;;;24.90;72.50;;;;;;4979224;28;20338;-81
2021/06/16 07:48:35;;;;;;;8.93;3.75;;;24.90;71.70;;;;;;4980965;28;20559;-81
2021/06/16 07:51:06;;;;;;;9.27;3.15;;;25.20;72.40;;;;;;4981915;28;20113;-81
2021/06/16 07:53:45;;;;;;;8.60;2.90;;;25.30;71.60;;;;;;4980815;28;20525;-81
2021/06/16 07:56:15;;;;;;;8.80;2.78;;;25.50;72.90;;;;;;4975246;28;20046;-82
2021/06/16 07:59:10;;;;;;;7.65;4.57;;;25.30;71.60;;;;;;4981840;28;20037;-81
2021/06/16 08:01:42;;;;;;;12.27;3.38;;;25.40;71.70;;;;;;4976319;28;20045;-82
2021/06/16 08:04:15;;;;;;;10.55;3.30;;;25.70;70.80;;;;;;4975487;28;20038;-82
2021/06/16 08:07:23;;;;;;;9.63;3.17;;;25.70;71.60;;;;;;4961621;28;20149;-81
2021/06/16 08:10:19;;;;;;;14.00;3.88;;;25.80;68.20;;;;;;4977525;28;20532;-82
2021/06/16 08:13:01;;;;;;;9.85;3.17;;;25.90;70.90;;;;;;4979969;28;20097;-81
2021/06/16 08:15:53;;;;;;;12.43;3.75;;;26.00;71.00;;;;;;4926250;29;20241;-81
2021/06/16 08:18:19;;;;;;;13.05;3.20;;;25.80;69.60;;;;;;4936685;28;20112;-81
2021/06/16 08:21:03;;;;;;;10.32;3.15;;;25.60;69.30;;;;;;4965792;28;20196;-81
2021/06/16 08:23:42;;;;;;;6.22;3.40;;;25.60;69.00;;;;;;4981417;28;20050;-81
2021/06/16 08:26:20;;;;;;;9.02;2.78;;;25.60;69.60;;;;;;4980532;28;20621;-81
2021/06/16 08:28:48;;;;;;;7.97;3.15;;;25.80;70.20;;;;;;4975040;28;20042;-82
2021/06/16 08:31:14;;;;;;;7.28;3.03;;;26.00;69.60;;;;;;4981530;28;20092;-83
2021/06/16 08:33:40;;;;;;;8.35;2.85;;;26.00;70.30;;;;;;4975529;28;20189;-83
2021/06/16 08:36:08;;;;;;;6.95;4.03;;;26.00;69.00;;;;;;4979404;28;20077;-82
2021/06/16 08:38:49;;;;;;;19.92;3.78;;;26.20;67.00;;;;;;4965509;28;20086;-82
2021/06/16 08:41:21;;;;;;;9.43;3.88;;;26.20;66.30;;;;;;4969351;28;20050;-82
2021/06/16 08:43:51;;;;;;;5.78;2.53;;;26.30;67.90;;;;;;4978236;28;20030;-82
2021/06/16 08:46:44;;;;;;;8.95;2.88;;;26.30;66.70;;;;;;4982191;28;20092;-82
2021/06/16 08:49:11;;;;;;;6.60;2.40;;;26.30;63.50;;;;;;4986572;28;20577;-82
2021/06/16 08:51:38;;;;;;;9.35;3.00;;;26.60;63.80;;;;;;4968285;28;20042;-82
2021/06/16 08:54:25;;;;;;;6.82;2.47;;;26.30;62.00;;;;;;4936534;28;20053;-82
2021/06/16 08:56:56;;;;;;;6.70;2.53;;;26.30;62.90;;;;;;4978351;28;20053;-83
2021/06/16 08:59:22;;;;;;;9.68;2.42;;;26.40;62.60;;;;;;4982275;28;20121;-83
2021/06/16 09:01:49;;;;;;;7.75;2.67;;;26.50;63.60;;;;;;4967382;28;20042;-82
2021/06/16 09:04:44;;;;;;;4.13;1.63;;;26.70;61.90;;;;;;4969422;28;20054;-82
2021/06/16 09:07:16;;;;;;;3.72;1.45;;;26.70;60.90;;;;;;4983374;28;20035;-82
2021/06/16 09:09:42;;;;;;;6.32;1.95;;;26.60;58.70;;;;;;4983904;28;20035;-82
2021/06/16 09:12:08;;;;;;;8.57;2.55;;;26.90;57.00;;;;;;4980746;28;20035;-82
2021/06/16 09:14:34;;;;;;;4.28;1.58;;;26.80;56.60;;;;;;4977985;28;20045;-82
2021/06/16 09:17:04;;;;;;;14.52;1.20;;;26.80;57.20;;;;;;4968163;28;20096;-82
2021/06/16 09:19:32;;;;;;;7.47;2.08;;;27.00;57.70;;;;;;4983497;28;20735;-82
2021/06/16 09:22:04;;;;;;;5.55;1.88;;;27.30;56.80;;;;;;4982618;28;20467;-81
2021/06/16 09:24:44;;;;;;;7.15;1.20;;;27.30;54.60;;;;;;4980806;28;20050;-82
2021/06/16 09:27:10;;;;;;;4.47;1.85;;;27.50;53.20;;;;;;4982674;28;20455;-82
2021/06/16 09:29:36;;;;;;;3.60;1.58;;;27.40;53.70;;;;;;4984509;28;20114;-82
2021/06/16 09:32:06;;;;;;;4.88;1.85;;;27.60;54.30;;;;;;4983281;28;20045;-83
2021/06/16 09:34:32;;;;;;;6.20;1.60;;;27.60;53.00;;;;;;4980748;28;20038;-82
2021/06/16 09:37:05;;;;;;;6.45;1.88;;;27.90;54.00;;;;;;4976616;28;20399;-82
2021/06/16 09:39:32;;;;;;;5.78;1.50;;;27.70;52.80;;;;;;4982140;28;20038;-82
2021/06/16 09:41:57;;;;;;;5.40;1.75;;;27.50;53.60;;;;;;4979191;28;20043;-82
2021/06/16 09:44:44;;;;;;;7.32;2.10;;;27.70;54.40;;;;;;4979749;28;20054;-82
2021/06/16 09:47:14;;;;;;;12.77;2.20;;;27.50;53.80;;;;;;4979251;28;20125;-82
2021/06/16 09:49:47;;;;;;;6.05;1.73;;;27.60;53.10;;;;;;4977953;28;20046;-82
2021/06/16 09:52:27;;;;;;;5.00;1.60;;;27.60;55.10;;;;;;4966021;28;20053;-82
2021/06/16 09:54:54;;;;;;;6.40;1.42;;;27.50;53.30;;;;;;4985180;28;20039;-82
2021/06/16 09:57:20;;;;;;;6.32;1.90;;;27.80;53.40;;;;;;4982033;28;20047;-82
2021/06/16 09:59:47;;;;;;;5.68;2.47;;;27.50;53.00;;;;;;4968661;28;20100;-82
2021/06/16 10:02:23;;;;;;;5.22;1.60;;;27.30;51.60;;;;;;4983808;28;20043;-82
2021/06/16 10:05:00;;;;;;;5.43;1.38;;;27.60;51.30;;;;;;4981844;28;20056;-81
2021/06/16 10:07:32;;;;;;;7.80;1.85;;;27.80;51.50;;;;;;4983188;28;21126;-82
2021/06/16 10:10:00;;;;;;;4.38;1.65;;;27.70;51.60;;;;;;4986786;28;20046;-83
2021/06/16 10:12:35;;;;;;;7.53;1.40;;;27.70;51.00;;;;;;4983023;28;20044;-82
2021/06/16 10:15:07;;;;;;;2.45;1.00;;;27.80;50.40;;;;;;4980996;28;20083;-82
2021/06/16 10:17:33;;;;;;;5.32;1.08;;;27.90;47.70;;;;;;4983851;28;20038;-82
2021/06/16 10:20:00;;;;;;;5.57;1.38;;;27.80;48.30;;;;;;4983502;28;20112;-82
2021/06/16 10:22:26;;;;;;;3.72;1.55;;;27.80;48.40;;;;;;4984179;28;20039;-82
2021/06/16 10:24:53;;;;;;;5.22;1.80;;;27.80;49.80;;;;;;4984138;28;20191;-83
2021/06/16 10:27:51;;;;;;;20.05;2.13;;;28.00;50.90;;;;;;4981902;28;20466;-82
2021/06/16 10:30:29;;;;;;;3.50;1.30;;;28.00;51.00;;;;;;4923879;28;20042;-82
2021/06/16 10:32:55;;;;;;;5.53;2.03;;;28.10;47.50;;;;;;4986801;28;20037;-80
2021/06/16 10:35:36;;;;;;;6.13;2.13;;;28.10;51.10;;;;;;4985023;28;20038;-80
2021/06/16 10:38:18;;;;;;;10.73;2.08;;;27.90;50.10;;;;;;4981895;28;20451;-81
2021/06/16 10:40:51;;;;;;;3.47;1.52;;;27.90;49.40;;;;;;4984527;28;20034;-80
2021/06/16 10:43:30;;;;;;;4.88;2.00;;;27.80;49.20;;;;;;4968016;28;20065;-81
2021/06/16 10:45:59;;;;;;;2.67;1.20;;;27.70;50.40;;;;;;4983181;28;20533;-81
2021/06/16 10:48:44;;;;;;;5.40;1.58;;;27.70;48.90;;;;;;4996569;28;20549;-81
2021/06/16 10:51:21;;;;;;;6.30;1.70;;;27.70;47.20;;;;;;4982755;28;20043;-81
2021/06/16 10:54:12;;;;;;;8.85;1.90;;;27.80;48.20;;;;;;4966715;28;20177;-82
2021/06/16 10:57:09;;;;;;;5.40;1.60;;;27.70;49.70;;;;;;4979506;28;20088;-82
2021/06/16 10:59:44;;;;;;;6.47;1.40;;;27.80;50.30;;;;;;4992002;28;20066;-82
2021/06/16 11:02:11;;;;;;;;;;;28.00;50.00;;;;;;4986239;28;20088;-82
2021/06/16 11:04:37;;;;;;;7.57;1.67;;;27.90;49.10;;;;;;4980605;28;19925;-82
2021/06/16 11:07:24;;;;;;;8.77;1.60;;;28.00;51.00;;;;;;4967165;28;20065;-81
2021/06/16 11:09:57;;;;;;;12.63;1.60;;;28.10;50.60;;;;;;4985156;28;20049;-81
2021/06/16 11:12:33;;;;;;;4.97;1.42;;;28.30;49.30;;;;;;4982631;28;20064;-81
2021/06/16 11:15:00;;;;;;;6.13;1.20;;;28.30;49.20;;;;;;4982639;28;20038;-81
2021/06/16 11:17:27;;;;;;;6.20;1.60;;;28.40;49.30;;;;;;4985576;28;20038;-81
2021/06/16 11:19:59;;;;;;;9.88;1.60;;;28.50;48.60;;;;;;4981765;28;20038;-81
2021/06/16 11:22:25;;;;;;;6.22;1.45;;;28.50;49.40;;;;;;4977185;28;20038;-81
2021/06/16 11:25:09;;;;;;;5.10;1.15;;;28.40;48.40;;;;;;4981189;28;20084;-82
2021/06/16 11:27:56;;;;;;;5.40;1.27;;;28.30;50.60;;;;;;4980751;28;20038;-83
2021/06/16 11:30:36;;;;;;;5.55;1.50;;;28.50;53.00;;;;;;4978718;28;20034;-81
2021/06/16 11:33:22;;;;;;;4.72;1.40;;;28.60;50.10;;;;;;4977816;28;20038;-82
2021/06/16 11:38:19;;;;;;;5.40;1.38;;;28.70;50.00;;;;;;4979234;28;20074;-81
2021/06/16 11:41:11;;;;;;;4.88;1.02;;;28.60;49.40;;;;;;4986440;28;20132;-81
2021/06/16 11:43:44;;;;;;;4.25;1.45;;;28.70;49.10;;;;;;4979598;28;20030;-81
2021/06/16 11:46:31;;;;;;;7.43;1.67;;;28.70;48.90;;;;;;4982708;28;20031;-81
2021/06/16 11:49:25;;;;;;;8.23;1.60;;;28.70;49.20;;;;;;4975612;28;20125;-82
2021/06/16 11:51:59;;;;;;;2.35;1.05;;;28.60;49.50;;;;;;4974030;28;20053;-81
2021/06/16 11:54:32;;;;;;;4.90;1.30;;;28.60;50.80;;;;;;4980915;28;20454;-81
2021/06/16 11:57:01;;;;;;;7.13;2.03;;;28.70;49.80;;;;;;4981987;28;20069;-83
2021/06/16 11:59:40;;;;;;;3.17;1.00;;;28.60;48.80;;;;;;4977152;28;20065;-82
2021/06/16 12:02:19;;;;;;;8.65;1.63;;;28.50;50.60;;;;;;4976737;28;20045;-81
2021/06/16 12:04:52;;;;;;;6.50;1.67;;;28.50;51.20;;;;;;4980028;28;20062;-82
2021/06/16 12:07:29;;;;;;;13.90;1.98;;;28.50;50.00;;;;;;4978635;28;20121;-81
2021/06/16 12:09:58;;;;;;;6.65;1.27;;;28.70;52.10;;;;;;4980335;28;20038;-81
2021/06/16 12:12:24;;;;;;;4.40;1.25;;;28.80;50.30;;;;;;4979065;28;20041;-82
2021/06/16 12:15:09;;;;;;;6.40;1.40;;;28.80;49.60;;;;;;4980820;28;20038;-82
2021/06/16 12:18:05;;;;;;;7.50;1.73;;;28.70;50.10;;;;;;4978709;28;20039;-84
2021/06/16 12:20:46;;;;;;;7.63;1.63;;;28.60;49.60;;;;;;4977006;28;20066;-83
2021/06/16 12:23:29;;;;;;;3.92;1.60;;;28.60;51.20;;;;;;4977427;28;20042;-81
2021/06/16 12:26:02;;;;;;;2.33;0.93;;;28.50;52.00;;;;;;4979970;28;20052;-82
2021/06/16 12:28:28;;;;;;;7.53;1.40;;;28.60;51.80;;;;;;4978936;28;20038;-81
2021/06/16 12:30:56;;;;;;;5.45;1.90;;;28.50;53.00;;;;;;4978205;28;20049;-81
2021/06/16 12:33:50;;;;;;;3.78;1.30;;;28.40;50.50;;;;;;4979201;28;20108;-82
2021/06/16 12:36:25;;;;;;;5.50;1.43;;;28.50;49.60;;;;;;4978687;28;20038;-82
2021/06/16 12:38:57;;;;;;;3.47;1.60;;;28.50;52.50;;;;;;4975842;28;20097;-81
2021/06/16 12:41:34;;;;;;;10.23;2.25;;;28.60;52.60;;;;;;4979884;28;20126;-81
2021/06/16 12:44:15;;;;;;;6.80;2.55;;;28.60;52.40;;;;;;4975261;28;20046;-81
2021/06/16 12:46:51;;;;;;;3.65;1.38;;;28.60;52.90;;;;;;4979471;28;20042;-83
2021/06/16 12:49:17;;;;;;;7.85;1.80;;;28.60;52.50;;;;;;4975726;28;20034;-82
2021/06/16 12:51:51;;;;;;;4.40;1.92;;;28.60;50.90;;;;;;4979660;28;20045;-81
2021/06/16 12:54:24;;;;;;;9.43;1.67;;;28.60;52.70;;;;;;4976795;28;20073;-83
2021/06/16 12:57:13;;;;;;;6.75;1.60;;;28.80;53.90;;;;;;4980500;28;20042;-82
2021/06/16 12:59:51;;;;;;;4.20;1.80;;;28.90;54.10;;;;;;4991346;28;20091;-81
2021/06/16 13:02:35;;;;;;;5.25;1.75;;;28.90;53.40;;;;;;4989100;28;20038;-81
2021/06/16 13:05:08;;;;;;;5.10;1.80;;;29.00;52.60;;;;;;4978215;28;20491;-83
2021/06/16 13:07:47;;;;;;;5.78;1.52;;;28.90;54.30;;;;;;4973926;28;20451;-81
2021/06/16 13:10:18;;;;;;;8.75;2.50;;;29.00;52.70;;;;;;4975700;28;20042;-84
2021/06/16 13:12:59;;;;;;;6.15;1.30;;;28.90;52.00;;;;;;4975594;28;20034;-83
2021/06/16 13:15:38;;;;;;;6.28;1.50;;;29.00;51.30;;;;;;4981150;28;20092;-81
2021/06/16 13:18:22;;;;;;;8.50;1.95;;;29.00;51.60;;;;;;4976995;28;20403;-81
2021/06/16 13:20:52;;;;;;;4.22;1.92;;;29.00;50.70;;;;;;4978634;28;20034;-81
2021/06/16 13:23:21;;;;;;;6.50;2.17;;;29.10;51.30;;;;;;4975133;28;20041;-82
2021/06/16 13:25:50;;;;;;;7.90;2.00;;;29.10;53.50;;;;;;4980080;28;20038;-83
2021/06/16 13:28:34;;;;;;;4.40;1.48;;;29.10;53.10;;;;;;4978764;28;20043;-81
2021/06/16 13:31:14;;;;;;;6.68;2.55;;;29.20;52.70;;;;;;4976218;28;20047;-81
2021/06/16 13:33:40;;;;;;;5.13;2.08;;;29.10;52.50;;;;;;4992054;28;20407;-81
2021/06/16 13:36:09;;;;;;;4.50;2.45;;;29.10;51.00;;;;;;4975607;28;20039;-82
2021/06/16 13:38:38;;;;;;;5.85;2.55;;;29.00;52.60;;;;;;4977879;28;20035;-82